sensor_id;sensor_type;location;lat;lon;timestamp;temperature;humidity
20463;DHT22;10390;53.566;9.980;2023-03-24T00:00:08;25.00;1.00
20463;DHT22;10390;53.566;9.980;2023-03-24T00:02:39;25.00;1.00
20463;DHT22;10390;53.566;9.980;2023-03-24T00:05:11;25.00;1.00
20463;DHT22;10390;53.566;9.980;2023-03-24T00:07:38;24.90;1.00
20463;DHT22;10390;53.566;9.980;2023-03-24T00:10:06;25.00;1.00
20463;DHT22;10390;53.566;9.980;2023-03-24T00:12:35;25.00;1.00
20463;DHT22;10390;53.566;9.980;2023-03-24T00:15:05;24.90;1.00
20463;DHT22;10390;53.566;9.980;2023-03-24T00:17:31;24.90;1.00
20463;DHT22;10390;53.566;9.980;2023-03-24T00:20:01;24.90;1.00
20463;DHT22;10390;53.566;9.980;2023-03-24T00:22:26;24.90;1.00
20463;DHT22;10390;53.566;9.980;2023-03-24T00:24:52;24.80;1.00
20463;DHT22;10390;53.566;9.980;2023-03-24T00:27:18;24.80;1.00
20463;DHT22;10390;53.566;9.980;2023-03-24T00:29:44;24.80;1.00
20463;DHT22;10390;53.566;9.980;2023-03-24T00:32:10;24.90;1.00
20463;DHT22;10390;53.566;9.980;2023-03-24T00:34:35;24.90;1.00
20463;DHT22;10390;53.566;9.980;2023-03-24T00:37:04;24.90;1.00
20463;DHT22;10390;53.566;9.980;2023-03-24T00:39:30;25.00;1.00
20463;DHT22;10390;53.566;9.980;2023-03-24T00:41:56;24.90;1.00
20463;DHT22;10390;53.566;9.980;2023-03-24T00:44:23;24.90;1.00
20463;DHT22;10390;53.566;9.980;2023-03-24T00:46:50;25.00;1.00
20463;DHT22;10390;53.566;9.980;2023-03-24T00:49:29;25.00;1.00
20463;DHT22;10390;53.566;9.980;2023-03-24T00:52:15;25.00;1.00
20463;DHT22;10390;53.566;9.980;2023-03-24T00:54:46;25.00;1.00
20463;DHT22;10390;53.566;9.980;2023-03-24T00:57:14;25.00;1.00
20463;DHT22;10390;53.566;9.980;2023-03-24T00:59:49;25.00;1.00
20463;DHT22;10390;53.566;9.980;2023-03-24T01:02:20;25.00;1.00
20463;DHT22;10390;53.566;9.980;2023-03-24T01:04:51;25.00;1.00
20463;DHT22;10390;53.566;9.980;2023-03-24T01:07:20;25.00;1.00
20463;DHT22;10390;53.566;9.980;2023-03-24T01:09:46;25.00;1.00
20463;DHT22;10390;53.566;9.980;2023-03-24T01:12:17;25.00;1.00
20463;DHT22;10390;53.566;9.980;2023-03-24T01:14:44;25.00;1.00
20463;DHT22;10390;53.566;9.980;2023-03-24T01:17:09;25.00;1.00
20463;DHT22;10390;53.566;9.980;2023-03-24T01:19:35;25.00;1.00
20463;DHT22;10390;53.566;9.980;2023-03-24T01:22:01;25.00;1.00
20463;DHT22;10390;53.566;9.980;2023-03-24T01:24:27;25.00;1.00
20463;DHT22;10390;53.566;9.980;2023-03-24T01:26:52;24.90;1.00
20463;DHT22;10390;53.566;9.980;2023-03-24T01:29:18;24.90;1.00
20463;DHT22;10390;53.566;9.980;2023-03-24T01:31:44;24.90;1.00
20463;DHT22;10390;53.566;9.980;2023-03-24T01:34:10;24.90;1.00
20463;DHT22;10390;53.566;9.980;2023-03-24T01:36:38;24.90;1.00
20463;DHT22;10390;53.566;9.980;2023-03-24T01:39:04;24.90;1.00
20463;DHT22;10390;53.566;9.980;2023-03-24T01:41:33;24.90;1.00
20463;DHT22;10390;53.566;9.980;2023-03-24T01:43:59;24.90;1.00
20463;DHT22;10390;53.566;9.980;2023-03-24T01:46:25;24.90;1.00
20463;DHT22;10390;53.566;9.980;2023-03-24T01:48:59;24.80;1.00
20463;DHT22;10390;53.566;9.980;2023-03-24T01:51:34;24.80;1.00
20463;DHT22;10390;53.566;9.980;2023-03-24T01:56:37;24.90;1.00
20463;DHT22;10390;53.566;9.980;2023-03-24T01:59:08;24.80;1.00
20463;DHT22;10390;53.566;9.980;2023-03-24T02:01:35;24.90;1.00
20463;DHT22;10390;53.566;9.980;2023-03-24T02:04:03;24.90;1.00
20463;DHT22;10390;53.566;9.980;2023-03-24T02:06:31;24.90;1.00
20463;DHT22;10390;53.566;9.980;2023-03-24T02:08:58;24.90;1.00
20463;DHT22;10390;53.566;9.980;2023-03-24T02:11:28;24.90;1.00
20463;DHT22;10390;53.566;9.980;2023-03-24T02:13:54;24.90;1.00
20463;DHT22;10390;53.566;9.980;2023-03-24T02:19:45;25.00;1.00
20463;DHT22;10390;53.566;9.980;2023-03-24T02:24:58;24.90;1.00
20463;DHT22;10390;53.566;9.980;2023-03-24T02:44:07;24.80;1.00
20463;DHT22;10390;53.566;9.980;2023-03-24T02:49:45;24.80;1.00
20463;DHT22;10390;53.566;9.980;2023-03-24T02:57:28;24.80;1.00
20463;DHT22;10390;53.566;9.980;2023-03-24T03:00:28;24.80;1.00
20463;DHT22;10390;53.566;9.980;2023-03-24T03:03:05;24.70;1.00
20463;DHT22;10390;53.566;9.980;2023-03-24T03:05:35;24.70;1.00
20463;DHT22;10390;53.566;9.980;2023-03-24T03:08:06;24.70;1.00
20463;DHT22;10390;53.566;9.980;2023-03-24T03:10:42;24.70;1.00
20463;DHT22;10390;53.566;9.980;2023-03-24T03:15:52;24.70;1.00
20463;DHT22;10390;53.566;9.980;2023-03-24T03:18:53;24.80;1.00
20463;DHT22;10390;53.566;9.980;2023-03-24T03:21:19;24.80;1.00
20463;DHT22;10390;53.566;9.980;2023-03-24T03:24:06;24.80;1.00
20463;DHT22;10390;53.566;9.980;2023-03-24T03:26:33;24.80;1.00
20463;DHT22;10390;53.566;9.980;2023-03-24T03:29:08;24.80;1.00
20463;DHT22;10390;53.566;9.980;2023-03-24T03:31:47;24.80;1.00
20463;DHT22;10390;53.566;9.980;2023-03-24T03:34:37;24.80;1.00
20463;DHT22;10390;53.566;9.980;2023-03-24T03:37:33;24.80;1.00
20463;DHT22;10390;53.566;9.980;2023-03-24T03:40:11;24.90;1.00
20463;DHT22;10390;53.566;9.980;2023-03-24T03:42:39;24.80;1.00
20463;DHT22;10390;53.566;9.980;2023-03-24T03:45:07;24.90;1.00
20463;DHT22;10390;53.566;9.980;2023-03-24T03:47:35;24.90;1.00
20463;DHT22;10390;53.566;9.980;2023-03-24T03:50:02;24.90;1.00
20463;DHT22;10390;53.566;9.980;2023-03-24T03:52:28;24.80;1.00
20463;DHT22;10390;53.566;9.980;2023-03-24T03:54:55;24.80;1.00
20463;DHT22;10390;53.566;9.980;2023-03-24T03:57:22;24.80;1.00
20463;DHT22;10390;53.566;9.980;2023-03-24T03:59:48;24.80;1.00
20463;DHT22;10390;53.566;9.980;2023-03-24T04:18:02;24.70;1.00
20463;DHT22;10390;53.566;9.980;2023-03-24T04:20:46;24.70;1.00
20463;DHT22;10390;53.566;9.980;2023-03-24T04:29:19;24.70;1.00
20463;DHT22;10390;53.566;9.980;2023-03-24T04:32:02;24.70;1.00
20463;DHT22;10390;53.566;9.980;2023-03-24T04:34:36;24.70;1.00
20463;DHT22;10390;53.566;9.980;2023-03-24T04:37:13;24.70;1.00
20463;DHT22;10390;53.566;9.980;2023-03-24T04:39:43;24.70;1.00
20463;DHT22;10390;53.566;9.980;2023-03-24T04:42:20;24.80;1.00
20463;DHT22;10390;53.566;9.980;2023-03-24T04:44:46;24.80;1.00
20463;DHT22;10390;53.566;9.980;2023-03-24T04:47:19;24.80;1.00
20463;DHT22;10390;53.566;9.980;2023-03-24T04:49:47;24.80;1.00
20463;DHT22;10390;53.566;9.980;2023-03-24T04:52:12;24.80;1.00
20463;DHT22;10390;53.566;9.980;2023-03-24T04:54:38;24.90;1.00
20463;DHT22;10390;53.566;9.980;2023-03-24T04:57:04;24.90;1.00
20463;DHT22;10390;53.566;9.980;2023-03-24T04:59:30;24.80;1.00
20463;DHT22;10390;53.566;9.980;2023-03-24T05:02:02;24.90;1.00
20463;DHT22;10390;53.566;9.980;2023-03-24T05:04:28;24.80;1.00
20463;DHT22;10390;53.566;9.980;2023-03-24T05:06:54;24.80;1.00
20463;DHT22;10390;53.566;9.980;2023-03-24T05:09:22;24.80;1.00
20463;DHT22;10390;53.566;9.980;2023-03-24T05:11:49;24.80;1.00
20463;DHT22;10390;53.566;9.980;2023-03-24T05:14:15;24.80;1.00
20463;DHT22;10390;53.566;9.980;2023-03-24T05:16:41;24.80;1.00
20463;DHT22;10390;53.566;9.980;2023-03-24T05:19:07;24.80;1.00
20463;DHT22;10390;53.566;9.980;2023-03-24T05:21:33;24.80;1.00
20463;DHT22;10390;53.566;9.980;2023-03-24T05:23:59;24.80;1.00
20463;DHT22;10390;53.566;9.980;2023-03-24T05:26:25;24.70;1.00
20463;DHT22;10390;53.566;9.980;2023-03-24T05:28:51;24.80;1.00
20463;DHT22;10390;53.566;9.980;2023-03-24T05:31:17;24.70;1.00
20463;DHT22;10390;53.566;9.980;2023-03-24T05:33:43;24.70;1.00
20463;DHT22;10390;53.566;9.980;2023-03-24T05:36:10;24.70;1.00
20463;DHT22;10390;53.566;9.980;2023-03-24T05:38:36;24.70;1.00
20463;DHT22;10390;53.566;9.980;2023-03-24T05:41:01;24.70;1.00
20463;DHT22;10390;53.566;9.980;2023-03-24T05:43:27;24.70;1.00
20463;DHT22;10390;53.566;9.980;2023-03-24T05:45:53;24.70;1.00
20463;DHT22;10390;53.566;9.980;2023-03-24T05:48:20;24.70;1.00
20463;DHT22;10390;53.566;9.980;2023-03-24T05:50:46;24.70;1.00
20463;DHT22;10390;53.566;9.980;2023-03-24T05:53:11;24.70;1.00
20463;DHT22;10390;53.566;9.980;2023-03-24T05:55:37;24.70;1.00
20463;DHT22;10390;53.566;9.980;2023-03-24T05:58:05;24.70;1.00
20463;DHT22;10390;53.566;9.980;2023-03-24T06:00:31;24.70;1.00
20463;DHT22;10390;53.566;9.980;2023-03-24T06:02:58;24.80;1.00
20463;DHT22;10390;53.566;9.980;2023-03-24T06:05:25;24.70;1.00
20463;DHT22;10390;53.566;9.980;2023-03-24T06:07:51;24.80;1.00
20463;DHT22;10390;53.566;9.980;2023-03-24T06:10:26;24.80;1.00
20463;DHT22;10390;53.566;9.980;2023-03-24T06:12:52;24.80;1.00
20463;DHT22;10390;53.566;9.980;2023-03-24T06:15:18;24.80;1.00
20463;DHT22;10390;53.566;9.980;2023-03-24T06:17:44;24.80;1.00
20463;DHT22;10390;53.566;9.980;2023-03-24T06:20:12;24.80;1.00
20463;DHT22;10390;53.566;9.980;2023-03-24T06:22:45;24.80;1.00
20463;DHT22;10390;53.566;9.980;2023-03-24T06:25:12;24.80;1.00
20463;DHT22;10390;53.566;9.980;2023-03-24T06:27:42;24.80;1.00
20463;DHT22;10390;53.566;9.980;2023-03-24T06:30:12;24.80;1.00
20463;DHT22;10390;53.566;9.980;2023-03-24T06:32:38;24.80;1.00
20463;DHT22;10390;53.566;9.980;2023-03-24T06:35:04;24.80;1.00
20463;DHT22;10390;53.566;9.980;2023-03-24T06:37:29;24.80;1.00
20463;DHT22;10390;53.566;9.980;2023-03-24T06:39:55;24.80;1.00
20463;DHT22;10390;53.566;9.980;2023-03-24T06:42:21;24.80;1.00
20463;DHT22;10390;53.566;9.980;2023-03-24T06:44:46;24.80;1.00
20463;DHT22;10390;53.566;9.980;2023-03-24T06:47:12;24.70;1.00
20463;DHT22;10390;53.566;9.980;2023-03-24T06:49:38;24.80;1.00
20463;DHT22;10390;53.566;9.980;2023-03-24T06:52:03;24.70;1.00
20463;DHT22;10390;53.566;9.980;2023-03-24T06:54:29;24.70;1.00
20463;DHT22;10390;53.566;9.980;2023-03-24T06:56:55;24.70;1.00
20463;DHT22;10390;53.566;9.980;2023-03-24T06:59:21;24.70;1.00
20463;DHT22;10390;53.566;9.980;2023-03-24T07:01:52;24.70;1.00
20463;DHT22;10390;53.566;9.980;2023-03-24T07:04:19;24.70;1.00
20463;DHT22;10390;53.566;9.980;2023-03-24T07:06:45;24.70;1.00
20463;DHT22;10390;53.566;9.980;2023-03-24T07:09:12;24.70;1.00
20463;DHT22;10390;53.566;9.980;2023-03-24T07:11:38;24.70;1.00
20463;DHT22;10390;53.566;9.980;2023-03-24T07:14:04;24.80;1.00
20463;DHT22;10390;53.566;9.980;2023-03-24T07:16:29;24.80;1.00
20463;DHT22;10390;53.566;9.980;2023-03-24T07:18:55;24.80;1.00
20463;DHT22;10390;53.566;9.980;2023-03-24T07:21:21;24.80;1.00
20463;DHT22;10390;53.566;9.980;2023-03-24T07:23:46;24.80;1.00
20463;DHT22;10390;53.566;9.980;2023-03-24T07:26:12;24.90;1.00
20463;DHT22;10390;53.566;9.980;2023-03-24T07:28:37;24.80;1.00
20463;DHT22;10390;53.566;9.980;2023-03-24T07:31:04;24.90;1.00
20463;DHT22;10390;53.566;9.980;2023-03-24T07:33:31;24.90;1.00
20463;DHT22;10390;53.566;9.980;2023-03-24T07:35:58;24.90;1.00
20463;DHT22;10390;53.566;9.980;2023-03-24T07:38:24;24.90;1.00
20463;DHT22;10390;53.566;9.980;2023-03-24T07:40:50;25.00;1.00
20463;DHT22;10390;53.566;9.980;2023-03-24T07:43:15;25.00;1.00
20463;DHT22;10390;53.566;9.980;2023-03-24T07:45:43;25.00;1.00
20463;DHT22;10390;53.566;9.980;2023-03-24T07:48:10;24.90;1.00
20463;DHT22;10390;53.566;9.980;2023-03-24T07:50:35;25.00;1.00
20463;DHT22;10390;53.566;9.980;2023-03-24T07:53:01;25.00;1.00
20463;DHT22;10390;53.566;9.980;2023-03-24T07:55:27;25.00;1.00
20463;DHT22;10390;53.566;9.980;2023-03-24T07:57:52;25.00;1.00
20463;DHT22;10390;53.566;9.980;2023-03-24T08:00:18;25.10;1.00
20463;DHT22;10390;53.566;9.980;2023-03-24T08:02:51;25.10;1.00
20463;DHT22;10390;53.566;9.980;2023-03-24T08:05:19;25.10;1.00
20463;DHT22;10390;53.566;9.980;2023-03-24T08:07:48;25.10;1.00
20463;DHT22;10390;53.566;9.980;2023-03-24T08:10:29;25.10;1.00
20463;DHT22;10390;53.566;9.980;2023-03-24T08:12:56;25.10;1.00
20463;DHT22;10390;53.566;9.980;2023-03-24T08:15:22;25.10;1.00
20463;DHT22;10390;53.566;9.980;2023-03-24T08:17:49;25.20;1.00
20463;DHT22;10390;53.566;9.980;2023-03-24T08:20:15;25.20;1.00
20463;DHT22;10390;53.566;9.980;2023-03-24T08:22:42;25.20;1.00
20463;DHT22;10390;53.566;9.980;2023-03-24T08:25:10;25.20;1.00
20463;DHT22;10390;53.566;9.980;2023-03-24T08:27:37;25.20;1.00
20463;DHT22;10390;53.566;9.980;2023-03-24T08:30:05;25.20;1.00
20463;DHT22;10390;53.566;9.980;2023-03-24T08:32:32;25.30;1.00
20463;DHT22;10390;53.566;9.980;2023-03-24T08:34:57;25.30;1.00
20463;DHT22;10390;53.566;9.980;2023-03-24T08:37:24;25.30;1.00
20463;DHT22;10390;53.566;9.980;2023-03-24T08:39:50;25.30;1.00
20463;DHT22;10390;53.566;9.980;2023-03-24T08:42:15;25.30;1.00
20463;DHT22;10390;53.566;9.980;2023-03-24T08:44:41;25.20;1.00
20463;DHT22;10390;53.566;9.980;2023-03-24T08:47:07;25.20;1.00
20463;DHT22;10390;53.566;9.980;2023-03-24T08:49:32;25.20;1.00
20463;DHT22;10390;53.566;9.980;2023-03-24T08:51:58;25.20;1.00
20463;DHT22;10390;53.566;9.980;2023-03-24T08:54:23;25.10;1.00
20463;DHT22;10390;53.566;9.980;2023-03-24T08:56:50;25.20;1.00
20463;DHT22;10390;53.566;9.980;2023-03-24T08:59:16;25.10;1.00
20463;DHT22;10390;53.566;9.980;2023-03-24T09:01:41;25.10;1.00
20463;DHT22;10390;53.566;9.980;2023-03-24T09:04:07;25.10;1.00
20463;DHT22;10390;53.566;9.980;2023-03-24T09:06:32;25.20;1.00
20463;DHT22;10390;53.566;9.980;2023-03-24T09:08:58;25.20;1.00
20463;DHT22;10390;53.566;9.980;2023-03-24T09:11:24;25.20;1.00
20463;DHT22;10390;53.566;9.980;2023-03-24T09:13:49;25.20;1.00
20463;DHT22;10390;53.566;9.980;2023-03-24T09:16:16;25.20;1.00
20463;DHT22;10390;53.566;9.980;2023-03-24T09:18:42;25.30;1.00
20463;DHT22;10390;53.566;9.980;2023-03-24T09:21:08;25.30;1.00
20463;DHT22;10390;53.566;9.980;2023-03-24T09:23:34;25.30;1.00
20463;DHT22;10390;53.566;9.980;2023-03-24T09:26:00;25.30;1.00
20463;DHT22;10390;53.566;9.980;2023-03-24T09:28:26;25.30;1.00
20463;DHT22;10390;53.566;9.980;2023-03-24T09:31:00;25.30;1.00
20463;DHT22;10390;53.566;9.980;2023-03-24T09:33:26;25.30;1.00
20463;DHT22;10390;53.566;9.980;2023-03-24T09:35:55;25.30;1.00
20463;DHT22;10390;53.566;9.980;2023-03-24T09:38:22;25.30;1.00
20463;DHT22;10390;53.566;9.980;2023-03-24T09:40:52;25.30;1.00
20463;DHT22;10390;53.566;9.980;2023-03-24T09:45:58;25.30;1.00
20463;DHT22;10390;53.566;9.980;2023-03-24T09:51:10;25.30;1.00
20463;DHT22;10390;53.566;9.980;2023-03-24T09:56:21;25.30;1.00
20463;DHT22;10390;53.566;9.980;2023-03-24T09:58:53;25.30;1.00
20463;DHT22;10390;53.566;9.980;2023-03-24T10:01:22;25.30;1.00
20463;DHT22;10390;53.566;9.980;2023-03-24T10:03:48;25.30;1.00
20463;DHT22;10390;53.566;9.980;2023-03-24T10:06:23;25.20;1.00
20463;DHT22;10390;53.566;9.980;2023-03-24T10:09:27;25.20;1.00
20463;DHT22;10390;53.566;9.980;2023-03-24T10:17:44;25.10;1.00
20463;DHT22;10390;53.566;9.980;2023-03-24T10:20:15;25.10;1.00
20463;DHT22;10390;53.566;9.980;2023-03-24T10:25:35;25.10;1.00
20463;DHT22;10390;53.566;9.980;2023-03-24T10:28:16;25.10;1.00
20463;DHT22;10390;53.566;9.980;2023-03-24T10:30:43;25.10;1.00
20463;DHT22;10390;53.566;9.980;2023-03-24T10:33:11;25.10;1.00
20463;DHT22;10390;53.566;9.980;2023-03-24T10:35:40;25.10;1.00
20463;DHT22;10390;53.566;9.980;2023-03-24T10:38:20;25.10;1.00
20463;DHT22;10390;53.566;9.980;2023-03-24T10:40:47;25.10;1.00
20463;DHT22;10390;53.566;9.980;2023-03-24T10:43:15;25.10;1.00
20463;DHT22;10390;53.566;9.980;2023-03-24T10:45:46;25.10;1.00
20463;DHT22;10390;53.566;9.980;2023-03-24T10:48:15;25.20;1.00
20463;DHT22;10390;53.566;9.980;2023-03-24T10:50:58;25.20;1.00
20463;DHT22;10390;53.566;9.980;2023-03-24T10:53:24;25.20;1.00
20463;DHT22;10390;53.566;9.980;2023-03-24T10:55:50;25.30;1.00
20463;DHT22;10390;53.566;9.980;2023-03-24T10:58:29;25.20;1.00
20463;DHT22;10390;53.566;9.980;2023-03-24T11:01:00;25.30;1.00
20463;DHT22;10390;53.566;9.980;2023-03-24T11:03:31;25.30;1.00
20463;DHT22;10390;53.566;9.980;2023-03-24T11:06:01;25.30;1.00
20463;DHT22;10390;53.566;9.980;2023-03-24T11:10:56;25.30;1.00
20463;DHT22;10390;53.566;9.980;2023-03-24T11:16:10;25.40;1.00
20463;DHT22;10390;53.566;9.980;2023-03-24T11:18:36;25.40;1.00
20463;DHT22;10390;53.566;9.980;2023-03-24T11:21:04;25.40;1.00
20463;DHT22;10390;53.566;9.980;2023-03-24T11:23:31;25.50;1.00
20463;DHT22;10390;53.566;9.980;2023-03-24T11:26:18;25.50;1.00
20463;DHT22;10390;53.566;9.980;2023-03-24T11:28:47;25.40;1.00
20463;DHT22;10390;53.566;9.980;2023-03-24T11:31:21;25.50;1.00
20463;DHT22;10390;53.566;9.980;2023-03-24T11:38:59;25.50;1.00
20463;DHT22;10390;53.566;9.980;2023-03-24T11:41:25;25.60;1.00
20463;DHT22;10390;53.566;9.980;2023-03-24T11:44:19;25.60;1.00
20463;DHT22;10390;53.566;9.980;2023-03-24T11:46:51;25.60;1.00
20463;DHT22;10390;53.566;9.980;2023-03-24T11:49:21;25.60;1.00
20463;DHT22;10390;53.566;9.980;2023-03-24T11:51:51;25.60;1.00
20463;DHT22;10390;53.566;9.980;2023-03-24T11:54:19;25.60;1.00
20463;DHT22;10390;53.566;9.980;2023-03-24T11:56:52;25.60;1.00
20463;DHT22;10390;53.566;9.980;2023-03-24T12:04:40;25.60;1.00
20463;DHT22;10390;53.566;9.980;2023-03-24T12:15:41;25.60;1.00
20463;DHT22;10390;53.566;9.980;2023-03-24T12:18:20;25.70;1.00
20463;DHT22;10390;53.566;9.980;2023-03-24T12:20:57;25.70;1.00
20463;DHT22;10390;53.566;9.980;2023-03-24T12:23:38;25.60;1.00
20463;DHT22;10390;53.566;9.980;2023-03-24T12:26:30;25.60;1.00
20463;DHT22;10390;53.566;9.980;2023-03-24T12:29:25;25.60;1.00
20463;DHT22;10390;53.566;9.980;2023-03-24T12:32:15;25.70;1.00
20463;DHT22;10390;53.566;9.980;2023-03-24T12:43:23;25.70;1.00
20463;DHT22;10390;53.566;9.980;2023-03-24T12:45:54;25.70;1.00
20463;DHT22;10390;53.566;9.980;2023-03-24T12:53:54;25.60;1.00
20463;DHT22;10390;53.566;9.980;2023-03-24T12:56:30;25.60;1.00
20463;DHT22;10390;53.566;9.980;2023-03-24T12:59:21;25.50;1.00
20463;DHT22;10390;53.566;9.980;2023-03-24T13:01:57;25.50;1.00
20463;DHT22;10390;53.566;9.980;2023-03-24T13:04:29;25.50;1.00
20463;DHT22;10390;53.566;9.980;2023-03-24T13:07:06;25.50;1.00
20463;DHT22;10390;53.566;9.980;2023-03-24T13:09:46;25.50;1.00
20463;DHT22;10390;53.566;9.980;2023-03-24T13:12:16;25.50;1.00
20463;DHT22;10390;53.566;9.980;2023-03-24T13:17:19;25.50;1.00
20463;DHT22;10390;53.566;9.980;2023-03-24T13:19:47;25.60;1.00
20463;DHT22;10390;53.566;9.980;2023-03-24T13:22:17;25.60;1.00
20463;DHT22;10390;53.566;9.980;2023-03-24T13:24:45;25.60;1.00
20463;DHT22;10390;53.566;9.980;2023-03-24T13:32:49;25.60;1.00
20463;DHT22;10390;53.566;9.980;2023-03-24T13:35:44;25.60;1.00
20463;DHT22;10390;53.566;9.980;2023-03-24T13:38:37;25.60;1.00
20463;DHT22;10390;53.566;9.980;2023-03-24T13:41:05;25.60;1.00
20463;DHT22;10390;53.566;9.980;2023-03-24T13:43:32;25.60;1.00
20463;DHT22;10390;53.566;9.980;2023-03-24T13:46:03;25.60;1.00
20463;DHT22;10390;53.566;9.980;2023-03-24T13:48:38;25.60;1.00
20463;DHT22;10390;53.566;9.980;2023-03-24T13:51:30;25.60;1.00
20463;DHT22;10390;53.566;9.980;2023-03-24T13:56:43;25.60;1.00
20463;DHT22;10390;53.566;9.980;2023-03-24T13:59:22;25.60;1.00
20463;DHT22;10390;53.566;9.980;2023-03-24T14:02:18;25.60;1.00
20463;DHT22;10390;53.566;9.980;2023-03-24T14:05:01;25.60;1.00
20463;DHT22;10390;53.566;9.980;2023-03-24T14:15:43;25.60;1.00
20463;DHT22;10390;53.566;9.980;2023-03-24T14:23:34;25.70;1.00
20463;DHT22;10390;53.566;9.980;2023-03-24T14:26:03;25.70;1.00
20463;DHT22;10390;53.566;9.980;2023-03-24T14:31:23;25.70;1.00
20463;DHT22;10390;53.566;9.980;2023-03-24T14:39:06;25.60;1.00
20463;DHT22;10390;53.566;9.980;2023-03-24T14:41:40;25.60;1.00
20463;DHT22;10390;53.566;9.980;2023-03-24T14:44:06;25.50;1.00
20463;DHT22;10390;53.566;9.980;2023-03-24T14:46:43;25.50;1.00
20463;DHT22;10390;53.566;9.980;2023-03-24T14:49:23;25.50;1.00
20463;DHT22;10390;53.566;9.980;2023-03-24T14:52:24;25.50;1.00
20463;DHT22;10390;53.566;9.980;2023-03-24T14:55:03;25.50;1.00
20463;DHT22;10390;53.566;9.980;2023-03-24T14:57:33;25.50;1.00
20463;DHT22;10390;53.566;9.980;2023-03-24T15:02:49;25.50;1.00
20463;DHT22;10390;53.566;9.980;2023-03-24T15:05:29;25.50;1.00
20463;DHT22;10390;53.566;9.980;2023-03-24T15:13:39;25.50;1.00
20463;DHT22;10390;53.566;9.980;2023-03-24T15:18:45;25.50;1.00
20463;DHT22;10390;53.566;9.980;2023-03-24T15:21:21;25.50;1.00
20463;DHT22;10390;53.566;9.980;2023-03-24T15:23:47;25.50;1.00
20463;DHT22;10390;53.566;9.980;2023-03-24T15:26:14;25.50;1.00
20463;DHT22;10390;53.566;9.980;2023-03-24T15:28:40;25.50;1.00
20463;DHT22;10390;53.566;9.980;2023-03-24T15:31:06;25.50;1.00
20463;DHT22;10390;53.566;9.980;2023-03-24T15:33:42;25.50;1.00
20463;DHT22;10390;53.566;9.980;2023-03-24T15:36:15;25.50;1.00
20463;DHT22;10390;53.566;9.980;2023-03-24T15:38:49;25.50;1.00
20463;DHT22;10390;53.566;9.980;2023-03-24T15:41:18;25.50;1.00
20463;DHT22;10390;53.566;9.980;2023-03-24T15:43:48;25.50;1.00
20463;DHT22;10390;53.566;9.980;2023-03-24T15:46:30;25.50;1.00
20463;DHT22;10390;53.566;9.980;2023-03-24T15:48:58;25.50;1.00
20463;DHT22;10390;53.566;9.980;2023-03-24T15:51:47;25.50;1.00
20463;DHT22;10390;53.566;9.980;2023-03-24T15:54:25;25.50;1.00
20463;DHT22;10390;53.566;9.980;2023-03-24T15:57:10;25.50;1.00
20463;DHT22;10390;53.566;9.980;2023-03-24T15:59:36;25.50;1.00
20463;DHT22;10390;53.566;9.980;2023-03-24T16:02:22;25.50;1.00
20463;DHT22;10390;53.566;9.980;2023-03-24T16:04:49;25.50;1.00
20463;DHT22;10390;53.566;9.980;2023-03-24T16:07:29;25.60;1.00
20463;DHT22;10390;53.566;9.980;2023-03-24T16:09:58;25.50;1.00
20463;DHT22;10390;53.566;9.980;2023-03-24T16:12:38;25.50;1.00
20463;DHT22;10390;53.566;9.980;2023-03-24T16:15:04;25.50;1.00
20463;DHT22;10390;53.566;9.980;2023-03-24T16:17:31;25.50;1.00
20463;DHT22;10390;53.566;9.980;2023-03-24T16:19:57;25.50;1.00
20463;DHT22;10390;53.566;9.980;2023-03-24T16:22:23;25.50;1.00
20463;DHT22;10390;53.566;9.980;2023-03-24T16:24:49;25.50;1.00
20463;DHT22;10390;53.566;9.980;2023-03-24T16:27:15;25.40;1.00
20463;DHT22;10390;53.566;9.980;2023-03-24T16:29:41;25.40;1.00
20463;DHT22;10390;53.566;9.980;2023-03-24T16:32:08;25.40;1.00
20463;DHT22;10390;53.566;9.980;2023-03-24T16:34:34;25.40;1.00
20463;DHT22;10390;53.566;9.980;2023-03-24T16:37:01;25.40;1.00
20463;DHT22;10390;53.566;9.980;2023-03-24T16:39:28;25.30;1.00
20463;DHT22;10390;53.566;9.980;2023-03-24T16:41:55;25.30;1.00
20463;DHT22;10390;53.566;9.980;2023-03-24T16:44:22;25.30;1.00
20463;DHT22;10390;53.566;9.980;2023-03-24T16:46:50;25.30;1.00
20463;DHT22;10390;53.566;9.980;2023-03-24T16:49:17;25.30;1.00
20463;DHT22;10390;53.566;9.980;2023-03-24T16:51:43;25.30;1.00
20463;DHT22;10390;53.566;9.980;2023-03-24T16:54:09;25.30;1.00
20463;DHT22;10390;53.566;9.980;2023-03-24T16:56:36;25.30;1.00
20463;DHT22;10390;53.566;9.980;2023-03-24T16:59:03;25.30;1.00
20463;DHT22;10390;53.566;9.980;2023-03-24T17:04:02;25.40;1.00
20463;DHT22;10390;53.566;9.980;2023-03-24T17:06:30;25.40;1.00
20463;DHT22;10390;53.566;9.980;2023-03-24T17:08:57;25.40;1.00
20463;DHT22;10390;53.566;9.980;2023-03-24T17:11:29;25.40;1.00
20463;DHT22;10390;53.566;9.980;2023-03-24T17:13:56;25.40;1.00
20463;DHT22;10390;53.566;9.980;2023-03-24T17:16:27;25.40;1.00
20463;DHT22;10390;53.566;9.980;2023-03-24T17:18:53;25.40;1.00
20463;DHT22;10390;53.566;9.980;2023-03-24T17:21:19;25.50;1.00
20463;DHT22;10390;53.566;9.980;2023-03-24T17:23:46;25.40;1.00
20463;DHT22;10390;53.566;9.980;2023-03-24T17:26:15;25.40;1.00
20463;DHT22;10390;53.566;9.980;2023-03-24T17:28:41;25.40;1.00
20463;DHT22;10390;53.566;9.980;2023-03-24T17:31:07;25.40;1.00
20463;DHT22;10390;53.566;9.980;2023-03-24T17:33:33;25.40;1.00
20463;DHT22;10390;53.566;9.980;2023-03-24T17:35:58;25.40;1.00
20463;DHT22;10390;53.566;9.980;2023-03-24T17:38:24;25.30;1.00
20463;DHT22;10390;53.566;9.980;2023-03-24T17:41:01;25.30;1.00
20463;DHT22;10390;53.566;9.980;2023-03-24T17:43:28;25.30;1.00
20463;DHT22;10390;53.566;9.980;2023-03-24T17:45:58;25.30;1.00
20463;DHT22;10390;53.566;9.980;2023-03-24T17:48:24;25.30;1.00
20463;DHT22;10390;53.566;9.980;2023-03-24T17:50:51;25.30;1.00
20463;DHT22;10390;53.566;9.980;2023-03-24T17:53:16;25.30;1.00
20463;DHT22;10390;53.566;9.980;2023-03-24T17:55:57;25.30;1.00
20463;DHT22;10390;53.566;9.980;2023-03-24T17:58:24;25.30;1.00
20463;DHT22;10390;53.566;9.980;2023-03-24T18:00:51;25.30;1.00
20463;DHT22;10390;53.566;9.980;2023-03-24T18:03:17;25.30;1.00
20463;DHT22;10390;53.566;9.980;2023-03-24T18:05:43;25.30;1.00
20463;DHT22;10390;53.566;9.980;2023-03-24T18:08:08;25.40;1.00
20463;DHT22;10390;53.566;9.980;2023-03-24T18:10:35;25.40;1.00
20463;DHT22;10390;53.566;9.980;2023-03-24T18:13:02;25.40;1.00
20463;DHT22;10390;53.566;9.980;2023-03-24T18:15:28;25.40;1.00
20463;DHT22;10390;53.566;9.980;2023-03-24T18:17:53;25.40;1.00
20463;DHT22;10390;53.566;9.980;2023-03-24T18:20:19;25.40;1.00
20463;DHT22;10390;53.566;9.980;2023-03-24T18:22:45;25.40;1.00
20463;DHT22;10390;53.566;9.980;2023-03-24T18:25:11;25.40;1.00
20463;DHT22;10390;53.566;9.980;2023-03-24T18:27:39;25.50;1.00
20463;DHT22;10390;53.566;9.980;2023-03-24T18:30:06;25.50;1.00
20463;DHT22;10390;53.566;9.980;2023-03-24T18:32:33;25.50;1.00
20463;DHT22;10390;53.566;9.980;2023-03-24T18:35:00;25.50;1.00
20463;DHT22;10390;53.566;9.980;2023-03-24T18:37:27;25.50;1.00
20463;DHT22;10390;53.566;9.980;2023-03-24T18:39:52;25.50;1.00